West Union, SC (29696)

07:18 AM EDT del 01 Settembre 2014 (GMT -0400)
West Walhalla (Near Library) KelBren | Change Station
CLOSE
Current Station
Stazione meteo personale
Location: Walhalla, SC
Altitudine: 1060 ft
Stazioni meteo nelle vicinanze

Alt. 1060 ft 34.76 °N, 83.07 °W | Updated 10 minutes ago

Parzialmente nuvoloso
Parzialmente nuvoloso
67.3 °F
Sembra 67.3 °F
N
0.0
Vento Variabile Vento da Ovest

Oggi
Massima -- | Minima -- °F
--% Possibilità di precip.
Ieri
Massima -- | Minima -- °F
Precip. -- in
7:05 AM 7:58 PM
Luna crescente, 40% visible
Pressione 30.12 in
Visibilità 10.0 miglia
Nuvole Sereno
Punto di rugiada 64 °F
Umidità 90%
Piovosità 0.00 in
Spessore del manto nevoso Non disponibile.
Raggi UV 0 fuori da 12
Polline 9.60 fuori da 12
Ozono Buono
PM2.5 Buono
Flu Activity Non disponibile.
METAR KCEU 011054Z AUTO 00000KT 10SM CLR 23/21 A3015 RMK AO2 SLP197 T02280206

More Conditions Fewer Conditions

Pressione 30.12 in
Visibilità 10.0 miglia
Nuvole Sereno
Punto di rugiada 64 °F
Umidità 90%
Piovosità 0.00 in
Spessore del manto nevoso Non disponibile.
Raggi UV 0 fuori da 12
Polline 9.60 fuori da 12
Ozono Buono
PM2.5 Buono
Flu Activity Non disponibile.
METAR KCEU 011054Z AUTO 00000KT 10SM CLR 23/21 A3015 RMK AO2 SLP197 T02280206

More Conditions Fewer Conditions

10-Day Weather Forecast

Almanac

Astronomia

Sep. 01, 2014 Alba Tramonto
Ora attuale 07:05 EDT 19:58 EDT
Crepuscolo civile 06:39 EDT 20:24 EDT
Crepuscolo nautico 06:08 EDT 20:54 EDT
Crepuscolo astronomico 05:37 EDT 21:26 EDT
Luna 13:33 EDT Nessun tramonto lunare
Estensione della luce visibile 13h 45m
Lunghezza del giorno
12h 53m
Tomorrow will be 2m 5s shorter.
Luna crescente, 40% of the Moon is Illuminated
Oggi
Luna crescente
Set 2
Primo quarto
Set 8
Luna piena
Set 15
Ultimo quarto
Set 24
Nuovo

Gli estremi di oggi

State Highs State Lows

Community

WunderPhotos

Upload Photos

1,749,188 foto caricate!

Nearby

Qualità dell'aria

  Qualità dell'aria Indice AQ Inquinante
Ieri Buono
OZONE
Attuale Buono
PM2.5
Attuale Buono
OZONE
Lunedì Buono
OZONE

Profondità neve

Stazione Profondità Altitudine
Non sono state evidenziate nuove nevicate

Attività sismica

Città  Distanza Mag. Data & Ora
Non sono state riportate attività sismiche nelle vicinanze.
Minimo Magnitudo Mostrato è 2.5.

Temperature delle acque costiere

Località Temperatura
Nessun dato dalle stazioni

Stazioni meteo nelle vicinanze